Time;durP1;ratioP1;P1;durP2;ratioP2;P2;SDS_P1;SDS_P2;PMS_P1;PMS_P2;Temp;Humidity;BMP_temperature;BMP_pressure;BME280_temperature;BME280_humidity;BME280_pressure;Samples;Min_cycle;Max_cycle;Signal;HPM_P1;HPM_P2
2022/08/06 00:02:27;;;;;;;0.90;0.90;;;;;;;23.79;45.67;100174.06;5074608;28;20028;-69
2022/08/06 00:04:53;;;;;;;1.02;0.88;;;;;;;23.77;45.85;100168.09;5074930;28;20035;-69
2022/08/06 00:07:18;;;;;;;1.02;1.02;;;;;;;23.78;46.04;100156.09;5074630;28;20023;-69
2022/08/06 00:09:44;;;;;;;1.08;1.00;;;;;;;23.79;45.89;100148.72;5075276;28;20025;-69
2022/08/06 00:12:09;;;;;;;1.02;1.00;;;;;;;23.78;45.92;100141.63;5074924;28;20036;-69
2022/08/06 00:14:35;;;;;;;1.00;1.00;;;;;;;23.77;45.99;100135.34;5075194;28;20025;-69
2022/08/06 00:17:00;;;;;;;1.08;1.00;;;;;;;23.78;45.94;100137.00;5074758;28;20409;-69
2022/08/06 00:19:26;;;;;;;0.90;0.90;;;;;;;23.78;45.85;100134.25;5074629;28;20370;-69
2022/08/06 00:21:51;;;;;;;0.98;0.98;;;;;;;23.77;45.93;100129.09;5074601;28;20056;-69
2022/08/06 00:24:17;;;;;;;0.70;0.70;;;;;;;23.76;46.00;100122.78;5074591;28;20494;-69
2022/08/06 00:26:42;;;;;;;0.80;0.80;;;;;;;23.76;45.99;100125.53;5074574;28;20390;-69
2022/08/06 00:29:07;;;;;;;1.05;0.80;;;;;;;23.76;45.86;100125.53;5074439;28;20029;-69
2022/08/06 00:31:33;;;;;;;1.05;0.95;;;;;;;23.76;46.14;100128.25;5074114;28;20049;-69
2022/08/06 00:34:01;;;;;;;1.25;1.17;;;;;;;23.76;45.99;100117.34;5074214;28;20109;-69
2022/08/06 00:36:27;;;;;;;1.08;1.02;;;;;;;23.75;46.03;100120.34;5074075;28;20504;-69
2022/08/06 00:38:52;;;;;;;0.93;0.93;;;;;;;23.75;46.14;100120.34;5073898;28;20025;-69
2022/08/06 00:41:18;;;;;;;0.90;0.90;;;;;;;23.76;46.06;100121.97;5074289;28;20024;-69
2022/08/06 00:43:44;;;;;;;1.00;1.00;;;;;;;23.73;46.09;100117.91;5073189;28;20028;-69
2022/08/06 00:46:09;;;;;;;1.10;1.10;;;;;;;23.75;46.28;100106.69;5072668;28;20417;-68
2022/08/06 00:48:34;;;;;;;1.10;1.00;;;;;;;23.70;46.10;100096.66;5074120;28;20032;-68
2022/08/06 00:51:00;;;;;;;1.00;1.00;;;;;;;23.75;45.91;100099.34;5074070;28;20040;-68
2022/08/06 00:53:25;;;;;;;1.10;1.10;;;;;;;23.75;46.19;100102.09;5073893;28;20048;-68
2022/08/06 00:55:51;;;;;;;1.15;1.05;;;;;;;23.73;46.30;100101.56;5055332;28;20047;-68
2022/08/06 00:58:16;;;;;;;1.23;1.10;;;;;;;23.73;46.28;100095.25;5053956;28;20025;-68
2022/08/06 01:00:41;;;;;;;1.30;1.20;;;;;;;23.74;46.42;100099.63;5053983;28;20450;-68
2022/08/06 01:03:07;;;;;;;0.90;0.90;;;;;;;23.75;46.21;100090.34;5053906;28;20356;-68
2022/08/06 01:05:32;;;;;;;1.20;1.10;;;;;;;23.73;46.41;100096.09;5054394;28;20455;-67
2022/08/06 01:07:58;;;;;;;1.02;1.00;;;;;;;23.72;46.11;100091.72;5053441;28;20506;-68
2022/08/06 01:10:23;;;;;;;1.20;1.15;;;;;;;23.72;46.43;100091.72;5053774;28;20025;-68
2022/08/06 01:12:49;;;;;;;1.15;1.10;;;;;;;23.72;46.37;100082.72;5053423;28;20025;-68
2022/08/06 01:15:14;;;;;;;1.00;1.00;;;;;;;23.72;46.51;100077.28;5053602;28;20040;-68
2022/08/06 01:18:01;;;;;;;1.17;1.08;;;;;;;23.74;46.87;100070.44;5053317;28;20060;-68
2022/08/06 01:20:34;;;;;;;1.08;1.02;;;;;;;23.72;46.56;100069.09;5053562;28;20422;-68
2022/08/06 01:23:35;;;;;;;0.90;0.90;;;;;;;23.73;46.64;100063.34;5052397;28;20104;-68
2022/08/06 01:26:13;;;;;;;1.02;1.02;;;;;;;23.71;46.17;100071.00;5052281;28;20113;-68
2022/08/06 01:28:55;;;;;;;1.20;1.10;;;;;;;23.72;46.71;100059.00;5052180;28;20475;-68
2022/08/06 01:31:25;;;;;;;0.90;0.90;;;;;;;23.70;46.64;100054.91;5052991;28;20403;-68
2022/08/06 01:33:52;;;;;;;0.85;0.85;;;;;;;23.70;46.22;100054.91;5051766;28;20052;-68
2022/08/06 01:36:24;;;;;;;1.20;1.10;;;;;;;23.68;46.46;100049.75;5052173;28;20028;-68
2022/08/06 01:38:51;;;;;;;1.30;1.20;;;;;;;23.69;46.71;100051.38;5035617;28;20043;-68
2022/08/06 01:41:38;;;;;;;1.23;1.08;;;;;;;23.68;46.51;100049.75;5052613;28;20036;-68
2022/08/06 01:44:08;;;;;;;1.30;1.20;;;;;;;23.70;46.41;100038.53;5038563;28;20029;-68
2022/08/06 01:46:35;;;;;;;1.20;1.10;;;;;;;23.70;46.51;100042.09;5051807;28;20049;-68
2022/08/06 01:49:01;;;;;;;1.25;1.15;;;;;;;23.70;46.31;100035.81;5053049;28;20025;-68
2022/08/06 01:51:27;;;;;;;1.42;1.10;;;;;;;23.69;46.63;100040.44;5053265;28;20031;-68
2022/08/06 01:53:52;;;;;;;1.15;1.10;;;;;;;23.70;46.45;100030.34;5053808;28;20036;-68
2022/08/06 01:56:17;;;;;;;1.10;1.00;;;;;;;23.68;46.45;100027.94;5072048;28;20027;-68
2022/08/06 01:58:43;;;;;;;1.65;1.10;;;;;;;23.68;46.75;100022.47;5055335;28;20119;-68
2022/08/06 02:01:10;;;;;;;1.00;1.00;;;;;;;23.66;46.64;100027.38;5055585;28;20043;-68
2022/08/06 02:03:47;;;;;;;1.00;1.00;;;;;;;23.67;46.72;100023.56;5058532;28;20046;-68
2022/08/06 02:06:16;;;;;;;1.63;1.00;;;;;;;23.67;46.40;100020.84;5075303;28;20426;-68
2022/08/06 02:08:41;;;;;;;1.15;1.10;;;;;;;23.68;46.57;100022.47;5076950;28;20032;-68
2022/08/06 02:11:08;;;;;;;1.15;1.15;;;;;;;23.66;46.88;100024.66;5073445;28;20032;-68
2022/08/06 02:13:34;;;;;;;1.23;1.13;;;;;;;23.67;46.95;100020.03;5074930;28;20021;-68
2022/08/06 02:16:00;;;;;;;1.98;1.15;;;;;;;23.66;46.72;100019.19;5073247;28;20486;-68
2022/08/06 02:18:27;;;;;;;1.40;1.30;;;;;;;23.66;46.52;100018.38;5073044;28;20103;-68
2022/08/06 02:20:53;;;;;;;1.00;1.00;;;;;;;23.65;46.70;100014.03;5072337;28;20035;-68
2022/08/06 02:23:21;;;;;;;1.50;1.40;;;;;;;23.66;46.65;100012.94;5058017;28;20027;-68
2022/08/06 02:25:47;;;;;;;1.20;1.10;;;;;;;23.66;46.76;100018.38;5073355;28;20094;-68
2022/08/06 02:28:13;;;;;;;1.35;1.25;;;;;;;23.62;46.66;100008.03;5071899;28;20359;-68
2022/08/06 02:30:41;;;;;;;1.30;1.10;;;;;;;23.63;46.90;100009.69;5072828;28;20085;-68
2022/08/06 02:33:08;;;;;;;1.55;1.33;;;;;;;23.66;46.69;100021.09;5072332;28;20049;-68
2022/08/06 02:35:38;;;;;;;1.33;1.23;;;;;;;23.62;46.64;100012.69;5071918;28;20050;-68
2022/08/06 02:38:24;;;;;;;1.05;1.00;;;;;;;23.64;46.70;100010.47;5072118;28;20048;-68
2022/08/06 02:40:54;;;;;;;1.20;1.10;;;;;;;23.64;46.68;100010.47;5073170;28;20107;-68
2022/08/06 02:43:23;;;;;;;1.02;1.02;;;;;;;23.62;47.11;100007.22;5071292;28;20479;-68
2022/08/06 02:46:13;;;;;;;1.40;1.30;;;;;;;23.67;47.52;100012.66;5054860;28;20028;-68
2022/08/06 02:48:49;;;;;;;1.15;1.10;;;;;;;23.63;46.97;100009.69;5072510;28;20025;-68
2022/08/06 02:51:21;;;;;;;1.40;1.30;;;;;;;23.63;46.98;100008.88;5071255;28;20085;-68
2022/08/06 02:54:07;;;;;;;1.90;1.30;;;;;;;23.66;47.53;100004.75;5074814;28;20029;-68
2022/08/06 02:56:33;;;;;;;1.35;1.25;;;;;;;23.63;47.18;99993.31;5036671;28;20029;-68
2022/08/06 02:58:59;;;;;;;1.30;1.20;;;;;;;23.64;47.30;99999.56;5051807;28;20025;-68
2022/08/06 03:01:35;;;;;;;1.38;1.30;;;;;;;23.64;47.52;99994.13;5035757;28;20021;-68
2022/08/06 03:04:01;;;;;;;1.27;1.17;;;;;;;23.62;47.59;99991.66;5036537;28;20091;-68
2022/08/06 03:06:28;;;;;;;1.23;1.13;;;;;;;23.62;47.58;99990.84;5051921;28;20021;-68
2022/08/06 03:08:54;;;;;;;1.40;1.30;;;;;;;23.61;47.70;99978.31;5051391;28;20032;-68
2022/08/06 03:11:20;;;;;;;1.15;1.15;;;;;;;23.62;47.81;99969.03;5068601;28;20033;-68
2022/08/06 03:13:45;;;;;;;1.23;1.20;;;;;;;23.62;47.69;99977.22;5068387;28;20467;-68
2022/08/06 03:16:11;;;;;;;1.48;1.38;;;;;;;23.62;47.83;99967.13;5035920;28;20449;-68
2022/08/06 03:18:36;;;;;;;1.30;1.20;;;;;;;23.61;47.76;99962.78;5051667;28;20025;-68
2022/08/06 03:21:02;;;;;;;1.50;1.40;;;;;;;23.60;48.32;99968.50;5035660;28;20371;-68
2022/08/06 03:23:28;;;;;;;1.25;1.15;;;;;;;23.62;48.04;99969.03;5034748;28;20055;-68
2022/08/06 03:25:54;;;;;;;1.75;1.65;;;;;;;23.61;48.12;99961.94;5051035;28;20048;-68
2022/08/06 03:28:19;;;;;;;1.30;1.20;;;;;;;23.62;48.25;99966.31;5034244;28;20029;-67
2022/08/06 03:30:45;;;;;;;1.60;1.50;;;;;;;23.61;48.07;99954.59;5034455;28;20025;-68
2022/08/06 03:33:12;;;;;;;1.60;1.50;;;;;;;23.61;48.19;99959.22;5035273;28;20471;-68
2022/08/06 03:35:39;;;;;;;1.70;1.60;;;;;;;23.60;48.58;99949.41;5034590;28;20029;-68
2022/08/06 03:38:07;;;;;;;1.42;1.33;;;;;;;23.61;48.70;99946.41;5034460;28;20082;-68
2022/08/06 03:40:32;;;;;;;1.48;1.38;;;;;;;23.61;48.72;99945.56;5035257;28;20041;-67
2022/08/06 03:42:58;;;;;;;1.52;1.42;;;;;;;23.58;48.64;99935.25;5033989;28;20021;-68
2022/08/06 03:45:24;;;;;;;1.73;1.50;;;;;;;23.61;48.86;99937.41;5035082;28;20379;-68
2022/08/06 03:47:54;;;;;;;1.80;1.70;;;;;;;23.60;48.65;99927.59;5050865;28;20025;-68
2022/08/06 03:50:28;;;;;;;1.70;1.60;;;;;;;23.60;48.76;99933.06;5034367;28;20105;-68
2022/08/06 03:53:24;;;;;;;1.60;1.50;;;;;;;23.63;49.63;99925.13;5033852;28;20026;-68
2022/08/06 03:55:50;;;;;;;1.70;1.60;;;;;;;23.63;49.20;99933.28;5065765;28;20027;-68
2022/08/06 03:58:16;;;;;;;1.70;1.60;;;;;;;23.62;49.39;99933.56;5057404;28;20020;-68
2022/08/06 04:01:09;;;;;;;1.50;1.40;;;;;;;23.65;50.17;99941.19;5075111;28;20025;-67
2022/08/06 04:03:35;;;;;;;1.85;1.75;;;;;;;23.63;49.70;99938.75;5071794;28;20398;-68
2022/08/06 04:06:00;;;;;;;1.80;1.70;;;;;;;23.62;49.66;99944.50;5073813;28;20029;-68
2022/08/06 04:08:26;;;;;;;1.80;1.70;;;;;;;23.60;49.59;99944.78;5074881;28;20032;-68
2022/08/06 04:10:51;;;;;;;1.85;1.75;;;;;;;23.62;49.87;99937.09;5074839;28;20032;-68
2022/08/06 04:13:18;;;;;;;2.00;1.90;;;;;;;23.62;49.90;99939.84;5073166;28;20029;-68
2022/08/06 04:15:43;;;;;;;2.08;1.90;;;;;;;23.61;50.21;99934.66;5073207;28;20120;-68
2022/08/06 04:18:10;;;;;;;1.70;1.60;;;;;;;23.60;50.23;99952.16;5073450;28;20024;-68
2022/08/06 04:20:35;;;;;;;2.75;1.70;;;;;;;23.60;50.35;99954.88;5074321;28;20112;-68
2022/08/06 04:23:01;;;;;;;2.03;1.83;;;;;;;23.62;50.15;99960.84;5073362;28;20107;-68
2022/08/06 04:25:28;;;;;;;1.92;1.75;;;;;;;23.61;50.41;99951.03;5074549;28;20512;-69
2022/08/06 04:27:53;;;;;;;2.00;1.90;;;;;;;23.61;50.62;99956.50;5074587;28;20032;-69
2022/08/06 04:30:19;;;;;;;1.92;1.80;;;;;;;23.62;50.82;99956.19;5073309;28;20391;-68
2022/08/06 04:32:45;;;;;;;2.22;1.95;;;;;;;23.61;50.51;99946.41;5072581;28;20106;-68
2022/08/06 04:35:10;;;;;;;1.98;1.88;;;;;;;23.63;51.02;99957.84;5073973;28;20024;-68
2022/08/06 04:37:35;;;;;;;2.00;1.83;;;;;;;23.61;50.65;99962.78;5073055;28;20024;-68
2022/08/06 04:40:01;;;;;;;2.17;2.00;;;;;;;23.63;50.89;99957.03;5056102;28;20364;-68
2022/08/06 04:42:26;;;;;;;2.40;2.20;;;;;;;23.61;50.64;99957.31;5073156;28;20055;-68
2022/08/06 04:44:52;;;;;;;2.33;2.13;;;;;;;23.64;50.54;99955.91;5072993;28;20501;-68
2022/08/06 04:47:18;;;;;;;2.08;1.98;;;;;;;23.59;50.79;99951.34;5056411;28;20374;-68
2022/08/06 04:49:43;;;;;;;2.05;1.95;;;;;;;23.62;51.21;99941.75;5074051;28;20458;-68
2022/08/06 04:52:08;;;;;;;2.40;2.20;;;;;;;23.62;51.07;99930.84;5073776;28;20475;-68
2022/08/06 04:54:34;;;;;;;2.50;2.30;;;;;;;23.62;51.15;99928.13;5069337;28;20491;-68
2022/08/06 04:56:59;;;;;;;2.42;2.22;;;;;;;23.62;51.22;99917.22;5054013;28;20489;-68
2022/08/06 04:59:25;;;;;;;2.25;2.10;;;;;;;23.62;51.04;99911.75;5053988;28;20447;-68
2022/08/06 05:01:50;;;;;;;2.90;2.70;;;;;;;23.62;51.04;99901.66;5053617;28;20360;-68
2022/08/06 05:04:15;;;;;;;2.60;2.40;;;;;;;23.62;51.14;99887.22;5053911;28;20040;-68
2022/08/06 05:07:06;;;;;;;2.78;2.58;;;;;;;23.61;50.76;99872.78;5054032;28;20021;-68
2022/08/06 05:09:31;;;;;;;3.00;2.80;;;;;;;23.62;51.28;99871.66;5053768;28;20112;-68
2022/08/06 05:12:01;;;;;;;2.50;2.30;;;;;;;23.62;50.70;99859.94;5053774;28;20363;-68
2022/08/06 05:14:37;;;;;;;2.95;2.75;;;;;;;23.62;51.96;99849.03;5053299;28;20021;-68
2022/08/06 05:17:03;;;;;;;2.72;2.53;;;;;;;23.60;51.41;99835.66;5052116;28;20027;-68
2022/08/06 05:19:33;;;;;;;2.75;2.50;;;;;;;23.59;51.22;99833.22;5035861;28;20112;-68
2022/08/06 05:21:58;;;;;;;2.75;2.53;;;;;;;23.59;51.57;99838.69;5036084;28;20029;-68
2022/08/06 05:24:24;;;;;;;2.78;2.58;;;;;;;23.61;51.64;99858.28;5052057;28;20029;-68
2022/08/06 05:26:49;;;;;;;2.85;2.63;;;;;;;23.62;51.18;99881.75;5053250;28;20025;-68
2022/08/06 05:29:20;;;;;;;3.00;2.70;;;;;;;23.60;51.25;99868.41;5053635;28;20036;-68
2022/08/06 05:31:45;;;;;;;3.40;3.10;;;;;;;23.61;51.49;99850.09;5035515;28;20485;-68
2022/08/06 05:34:11;;;;;;;2.88;2.53;;;;;;;23.61;51.67;99863.75;5053513;28;20016;-68
2022/08/06 05:36:38;;;;;;;2.90;2.70;;;;;;;23.56;51.54;99861.91;5053172;28;20048;-68
2022/08/06 05:39:03;;;;;;;3.05;2.85;;;;;;;23.61;51.41;99874.66;5053467;28;20040;-68
2022/08/06 05:41:29;;;;;;;2.92;2.72;;;;;;;23.61;51.75;99880.94;5053346;28;20029;-68
2022/08/06 05:43:54;;;;;;;2.90;2.70;;;;;;;23.61;51.56;99880.94;5053548;28;20028;-68
2022/08/06 05:46:21;;;;;;;3.28;2.97;;;;;;;23.60;51.69;99870.31;5053499;28;20029;-68
2022/08/06 05:48:53;;;;;;;3.05;2.85;;;;;;;23.61;51.61;99882.84;5053632;28;20027;-68
2022/08/06 05:51:33;;;;;;;3.00;2.80;;;;;;;23.62;51.82;99887.22;5052065;28;20475;-68
2022/08/06 05:54:03;;;;;;;3.30;3.00;;;;;;;23.59;51.94;99904.97;5051905;28;20025;-68
2022/08/06 05:56:31;;;;;;;2.88;2.67;;;;;;;23.61;51.66;99889.13;5070946;28;20111;-68
2022/08/06 05:58:59;;;;;;;3.63;3.33;;;;;;;23.59;52.14;99890.50;5073226;28;20025;-68
2022/08/06 06:01:25;;;;;;;2.88;2.67;;;;;;;23.62;51.57;99892.66;5055489;28;20033;-68
2022/08/06 06:03:53;;;;;;;3.50;3.20;;;;;;;23.60;52.08;99894.88;5071953;28;20127;-68
2022/08/06 06:06:19;;;;;;;3.75;3.20;;;;;;;23.60;51.75;99898.41;5071712;28;20108;-68
2022/08/06 06:08:44;;;;;;;2.90;2.70;;;;;;;23.60;52.20;99917.50;5071873;28;20027;-68
2022/08/06 06:11:10;;;;;;;2.97;2.78;;;;;;;23.61;52.11;99929.22;5072839;28;20493;-68
2022/08/06 06:13:35;;;;;;;3.33;3.10;;;;;;;23.60;52.20;99917.50;5073002;28;20021;-68
2022/08/06 06:16:24;;;;;;;3.30;3.00;;;;;;;23.64;52.49;99923.19;5071429;28;20028;-68
2022/08/06 06:19:02;;;;;;;3.28;2.97;;;;;;;23.63;51.91;99921.59;5071852;28;20044;-68
2022/08/06 06:21:52;;;;;;;3.38;3.08;;;;;;;23.62;51.92;99895.41;5071848;28;20029;-68
2022/08/06 06:24:35;;;;;;;3.70;3.40;;;;;;;23.63;51.84;99900.56;5071880;28;20379;-68
2022/08/06 06:27:12;;;;;;;3.60;3.30;;;;;;;23.61;52.06;99896.47;5073772;28;20033;-68
2022/08/06 06:30:05;;;;;;;3.05;2.83;;;;;;;23.63;52.38;99899.75;5075308;28;20491;-68
2022/08/06 06:32:44;;;;;;;3.20;2.90;;;;;;;23.62;52.10;99895.41;5076463;28;20105;-68
2022/08/06 06:35:28;;;;;;;3.55;3.25;;;;;;;23.63;52.45;99900.56;5076372;28;20075;-68
2022/08/06 06:38:17;;;;;;;3.55;3.25;;;;;;;23.61;51.82;99891.03;5075238;28;20039;-68
2022/08/06 06:41:02;;;;;;;4.25;3.53;;;;;;;23.63;52.85;99895.09;5076589;28;20040;-68
2022/08/06 06:44:00;;;;;;;3.40;3.10;;;;;;;23.62;52.90;99896.19;5059718;28;20474;-68
2022/08/06 06:46:56;;;;;;;3.40;3.10;;;;;;;23.66;52.62;99899.16;5075255;28;20025;-68
2022/08/06 06:49:41;;;;;;;3.33;3.03;;;;;;;23.61;51.90;99905.50;5060740;28;20108;-68
2022/08/06 06:52:10;;;;;;;;;;;;;;;23.78;52.66;99885.97;5075705;28;20025;-68
2022/08/06 06:54:42;;;;;;;3.50;3.20;;;;;;;23.66;51.57;99887.44;5073079;28;19928;-68
2022/08/06 06:57:10;;;;;;;2.95;2.75;;;;;;;23.63;52.62;99903.28;5038768;28;20025;-68
2022/08/06 06:59:38;;;;;;;3.10;2.90;;;;;;;23.62;52.33;99909.03;5055158;28;20047;-68
2022/08/06 07:02:04;;;;;;;3.60;3.30;;;;;;;23.59;52.58;99907.69;5054926;28;20020;-68
2022/08/06 07:04:29;;;;;;;4.05;3.22;;;;;;;23.59;52.88;99915.88;5054980;28;20478;-68
2022/08/06 07:06:56;;;;;;;3.30;3.00;;;;;;;23.60;52.79;99927.59;5054883;28;20452;-68
2022/08/06 07:09:23;;;;;;;3.35;3.05;;;;;;;23.60;52.97;99919.41;5038048;28;20029;-68
2022/08/06 07:11:50;;;;;;;3.30;3.00;;;;;;;23.59;52.88;99912.31;5054508;28;20025;-68
2022/08/06 07:14:15;;;;;;;3.47;3.13;;;;;;;23.60;52.99;99908.50;5038204;28;20032;-68
2022/08/06 07:16:41;;;;;;;3.40;3.10;;;;;;;23.59;53.03;99920.50;5054673;28;20029;-68
2022/08/06 07:19:07;;;;;;;3.60;3.30;;;;;;;23.60;52.75;99908.50;5055885;28;20025;-68
2022/08/06 07:21:32;;;;;;;3.70;3.40;;;;;;;23.60;52.67;99912.03;5055630;28;20028;-68
2022/08/06 07:23:58;;;;;;;3.42;3.15;;;;;;;23.60;53.05;99911.25;5054283;28;20025;-68
2022/08/06 07:26:23;;;;;;;3.40;3.10;;;;;;;23.55;52.99;99914.81;5054187;28;20025;-68
2022/08/06 07:28:49;;;;;;;4.53;3.20;;;;;;;23.59;52.53;99907.69;5055947;28;20055;-68
2022/08/06 07:31:15;;;;;;;3.60;3.15;;;;;;;23.57;52.95;99898.16;5055621;28;20079;-68
2022/08/06 07:33:41;;;;;;;3.13;2.92;;;;;;;23.59;52.88;99909.59;5037273;28;20053;-68
2022/08/06 07:36:07;;;;;;;3.97;3.60;;;;;;;23.58;52.75;99914.25;5055240;28;20029;-68
2022/08/06 07:38:33;;;;;;;3.72;3.42;;;;;;;23.58;53.01;99908.78;5054809;28;20048;-68
2022/08/06 07:41:04;;;;;;;3.78;3.47;;;;;;;23.56;52.73;99910.16;5054307;28;20029;-68
2022/08/06 07:43:32;;;;;;;3.50;3.20;;;;;;;23.58;52.94;99910.72;5055426;28;20040;-68
2022/08/06 07:45:59;;;;;;;3.38;3.17;;;;;;;23.57;53.04;99906.34;5055450;28;20387;-68
2022/08/06 07:48:30;;;;;;;3.60;3.30;;;;;;;23.56;52.44;99919.19;5037671;28;20399;-68
2022/08/06 07:50:56;;;;;;;3.88;3.58;;;;;;;23.59;53.09;99934.97;5054053;28;20024;-68
2022/08/06 07:53:21;;;;;;;3.67;3.35;;;;;;;23.59;52.97;99940.44;5053906;28;20367;-69
2022/08/06 07:55:47;;;;;;;3.50;3.20;;;;;;;23.58;53.33;99924.34;5048902;28;20028;-69
2022/08/06 07:58:12;;;;;;;3.63;3.20;;;;;;;23.59;53.06;99920.50;5073957;28;20044;-68
2022/08/06 08:00:39;;;;;;;3.60;3.30;;;;;;;23.59;53.03;99915.88;5073871;28;20153;-68
2022/08/06 08:08:33;;;;;;;3.47;3.17;;;;;;;23.60;53.16;99911.25;5073860;28;20081;-68
2022/08/06 08:10:58;;;;;;;3.60;3.30;;;;;;;23.58;53.21;99903.34;5074547;28;20029;-68
2022/08/06 08:13:24;;;;;;;3.38;3.10;;;;;;;23.56;53.21;99897.34;5056963;28;20024;-68
2022/08/06 08:15:50;;;;;;;3.40;3.10;;;;;;;23.56;53.20;99900.09;5073640;28;20570;-68
2022/08/06 08:18:15;;;;;;;3.70;3.40;;;;;;;23.57;53.46;99903.63;5073313;28;20028;-68
2022/08/06 08:20:41;;;;;;;3.47;3.17;;;;;;;23.56;53.34;99905.53;5073439;28;20029;-68
2022/08/06 08:23:07;;;;;;;3.63;3.33;;;;;;;23.57;53.51;99912.59;5074370;28;20025;-68
2022/08/06 08:25:33;;;;;;;3.55;3.25;;;;;;;23.57;53.39;99911.81;5074362;28;20021;-68
2022/08/06 08:27:59;;;;;;;3.60;3.30;;;;;;;23.57;53.48;99907.16;5074267;28;20021;-68
2022/08/06 08:30:24;;;;;;;3.65;3.35;;;;;;;23.56;53.57;99900.09;5074464;28;20021;-69
2022/08/06 08:32:50;;;;;;;3.50;3.20;;;;;;;23.57;53.48;99911.81;5073961;28;20055;-69
2022/08/06 08:35:15;;;;;;;3.42;3.13;;;;;;;23.56;53.33;99919.19;5073976;28;20025;-68
2022/08/06 08:37:41;;;;;;;3.30;3.00;;;;;;;23.57;53.63;99911.81;5074286;28;20017;-68
2022/08/06 08:40:07;;;;;;;3.45;3.15;;;;;;;23.56;53.59;99921.91;5074339;28;20037;-68
2022/08/06 08:42:53;;;;;;;3.60;3.30;;;;;;;23.57;54.28;99923.50;5073936;28;20097;-68
2022/08/06 08:45:19;;;;;;;3.40;3.10;;;;;;;23.56;53.33;99915.63;5072875;28;20475;-68
2022/08/06 08:47:46;;;;;;;3.65;3.35;;;;;;;23.55;53.38;99909.34;5074111;28;20100;-68
2022/08/06 08:50:12;;;;;;;3.45;3.15;;;;;;;23.57;53.63;99907.16;5055191;28;20458;-68
2022/08/06 08:52:38;;;;;;;3.28;3.05;;;;;;;23.55;53.82;99908.56;5073771;28;20067;-68
2022/08/06 08:55:06;;;;;;;3.50;3.20;;;;;;;23.55;53.53;99908.56;5067860;28;20455;-68
2022/08/06 08:57:33;;;;;;;3.08;2.88;;;;;;;23.56;53.57;99910.16;5036379;28;20174;-68
2022/08/06 09:00:00;;;;;;;2.90;2.70;;;;;;;23.54;53.63;99917.81;5053633;28;20087;-68
2022/08/06 09:02:26;;;;;;;2.85;2.60;;;;;;;23.54;53.53;99924.09;5053751;28;20057;-68
2022/08/06 09:04:52;;;;;;;3.00;2.80;;;;;;;23.55;53.72;99919.47;5052367;28;20104;-68
2022/08/06 09:07:18;;;;;;;2.80;2.60;;;;;;;23.55;53.73;99933.91;5053544;28;20108;-68
2022/08/06 09:09:43;;;;;;;2.90;2.70;;;;;;;23.55;53.66;99930.38;5052267;28;20021;-68
2022/08/06 09:12:09;;;;;;;2.67;2.47;;;;;;;23.56;53.51;99929.25;5053486;28;20025;-68
2022/08/06 09:14:35;;;;;;;2.95;2.75;;;;;;;23.55;53.64;99935.81;5052399;28;20017;-67
2022/08/06 09:17:05;;;;;;;2.92;2.70;;;;;;;23.54;53.43;99935.03;5053787;28;20475;-68
2022/08/06 09:19:30;;;;;;;2.90;2.70;;;;;;;23.54;53.82;99939.63;5053366;28;20033;-68
2022/08/06 09:21:59;;;;;;;2.55;2.35;;;;;;;23.54;53.24;99939.63;5053642;28;20029;-68
2022/08/06 09:24:25;;;;;;;2.45;2.25;;;;;;;23.55;53.58;99949.47;5053585;28;20020;-68
2022/08/06 09:27:06;;;;;;;2.67;2.47;;;;;;;23.56;54.38;99948.34;5053470;28;20048;-68
2022/08/06 09:29:32;;;;;;;2.55;2.35;;;;;;;23.55;53.62;99954.91;5053237;28;20028;-68
2022/08/06 09:31:58;;;;;;;2.50;2.30;;;;;;;23.54;53.71;99951.38;5053135;28;20051;-67
2022/08/06 09:34:31;;;;;;;2.60;2.40;;;;;;;23.53;53.90;99954.41;5053080;28;20029;-67
2022/08/06 09:36:57;;;;;;;2.28;2.17;;;;;;;23.55;53.99;99960.38;5053080;28;20079;-68
2022/08/06 09:39:39;;;;;;;2.20;2.00;;;;;;;23.56;54.41;99953.78;5052229;28;20037;-68
2022/08/06 09:42:05;;;;;;;1.88;1.77;;;;;;;23.54;53.81;99956.84;5052190;28;20112;-68
2022/08/06 09:44:30;;;;;;;1.75;1.65;;;;;;;23.52;53.71;99974.56;5053326;28;20443;-68
2022/08/06 09:46:57;;;;;;;2.20;2.03;;;;;;;23.55;53.63;99968.56;5051791;28;20439;-68
2022/08/06 09:49:23;;;;;;;1.73;1.63;;;;;;;23.53;53.69;99966.09;5053338;28;20029;-68
2022/08/06 09:51:48;;;;;;;1.88;1.77;;;;;;;23.55;53.44;99982.19;5035539;28;20108;-68
2022/08/06 09:54:15;;;;;;;1.77;1.67;;;;;;;23.53;53.58;99978.94;5052834;28;20029;-68
2022/08/06 09:56:45;;;;;;;1.50;1.40;;;;;;;23.52;53.69;99972.66;5068332;28;20490;-68
2022/08/06 09:59:11;;;;;;;1.50;1.40;;;;;;;23.53;53.45;99974.28;5073271;28;20042;-68
2022/08/06 10:01:43;;;;;;;1.40;1.30;;;;;;;23.51;52.92;99978.38;5074754;28;20021;-68
2022/08/06 10:04:23;;;;;;;1.60;1.50;;;;;;;23.52;53.66;99974.56;5077025;28;20525;-68
2022/08/06 10:06:52;;;;;;;1.58;1.48;;;;;;;23.51;52.78;99981.13;5075797;28;20021;-68
2022/08/06 10:09:17;;;;;;;1.40;1.30;;;;;;;23.51;53.29;99976.50;5077355;28;20024;-68
2022/08/06 10:11:42;;;;;;;1.40;1.30;;;;;;;23.51;53.37;99975.66;5076975;28;20020;-68
2022/08/06 10:14:23;;;;;;;1.63;1.52;;;;;;;23.52;53.40;99963.66;5076829;28;20024;-68
2022/08/06 10:17:07;;;;;;;1.15;1.05;;;;;;;23.54;53.60;99980.56;5076852;28;20036;-68
2022/08/06 10:19:33;;;;;;;1.40;1.30;;;;;;;23.51;53.14;99983.84;5077115;28;20044;-68
2022/08/06 10:22:05;;;;;;;1.58;1.20;;;;;;;23.51;53.21;99981.13;5076786;28;20371;-68
2022/08/06 10:24:32;;;;;;;1.33;1.23;;;;;;;23.50;52.96;99977.56;5076910;28;20122;-68
2022/08/06 10:26:57;;;;;;;1.52;1.30;;;;;;;23.50;53.17;99979.50;5076033;28;20459;-68
2022/08/06 10:29:24;;;;;;;1.30;1.20;;;;;;;23.50;53.12;99976.78;5075785;28;20043;-68
2022/08/06 10:31:50;;;;;;;1.05;1.00;;;;;;;23.49;53.14;99975.97;5075081;28;20048;-68
2022/08/06 10:34:20;;;;;;;1.00;1.00;;;;;;;23.50;52.71;99993.94;5058683;28;20024;-68
2022/08/06 10:36:54;;;;;;;1.30;1.20;;;;;;;23.49;52.87;99994.22;5075518;28;20032;-68
2022/08/06 10:39:25;;;;;;;;;;;;;;;23.66;53.12;99983.72;5059124;28;20031;-68
2022/08/06 10:41:51;;;;;;;1.27;1.17;;;;;;;23.54;52.83;99989.56;5075193;28;19912;-68
2022/08/06 10:44:16;;;;;;;1.00;1.00;;;;;;;23.51;53.02;100000.19;5074999;28;20035;-68
2022/08/06 10:46:42;;;;;;;1.17;1.00;;;;;;;23.50;53.17;99993.94;5076310;28;20035;-68
2022/08/06 10:49:08;;;;;;;1.25;1.00;;;;;;;23.46;53.24;99995.63;5076470;28;20028;-68
2022/08/06 10:51:34;;;;;;;1.05;0.90;;;;;;;23.44;53.76;99989.63;5058524;28;20073;-68
2022/08/06 10:53:59;;;;;;;0.90;0.90;;;;;;;23.46;52.86;99989.31;5075970;28;20409;-68
2022/08/06 10:56:26;;;;;;;1.05;1.00;;;;;;;23.44;52.88;99998.63;5045393;28;20024;-68
2022/08/06 10:58:52;;;;;;;0.85;0.85;;;;;;;23.44;53.03;99995.91;5055111;28;20021;-68
2022/08/06 11:01:17;;;;;;;0.80;0.80;;;;;;;23.47;52.72;99988.25;5055103;28;20095;-68
2022/08/06 11:04:19;;;;;;;1.00;1.00;;;;;;;23.47;52.95;99977.34;5056236;28;20033;-68
2022/08/06 11:07:00;;;;;;;0.80;0.80;;;;;;;23.50;52.83;99983.03;5041490;28;20035;-68
2022/08/06 11:10:03;;;;;;;0.90;0.90;;;;;;;23.51;52.13;99975.66;5056071;28;20045;-68
2022/08/06 11:12:54;;;;;;;1.08;1.00;;;;;;;23.43;52.24;99977.91;5055293;28;20025;-68
2022/08/06 11:15:19;;;;;;;0.80;0.80;;;;;;;23.46;52.03;99981.16;5055888;28;20025;-68
2022/08/06 11:17:45;;;;;;;0.80;0.80;;;;;;;23.47;51.81;99988.25;5055691;28;20128;-67
2022/08/06 11:20:32;;;;;;;1.52;0.90;;;;;;;23.47;52.28;99985.50;5055979;28;20478;-67
2022/08/06 11:23:04;;;;;;;0.80;0.80;;;;;;;23.44;51.54;99973.28;5055596;28;20024;-67
2022/08/06 11:25:44;;;;;;;0.70;0.70;;;;;;;23.46;51.52;99981.16;5054757;28;20029;-67
2022/08/06 11:28:16;;;;;;;0.70;0.70;;;;;;;23.46;51.21;99972.97;5055587;28;20075;-68
2022/08/06 11:30:48;;;;;;;0.90;0.82;;;;;;;23.38;51.51;99975.19;5056430;28;20021;-68
2022/08/06 11:33:34;;;;;;;1.60;0.95;;;;;;;23.46;51.30;99987.44;5055360;28;20440;-68
2022/08/06 11:36:09;;;;;;;0.70;0.70;;;;;;;23.39;50.93;99986.94;5055290;28;20451;-68
2022/08/06 11:38:46;;;;;;;0.70;0.70;;;;;;;23.37;51.28;99984.50;5055589;28;20025;-68
2022/08/06 11:41:27;;;;;;;0.73;0.73;;;;;;;23.37;51.06;99989.94;5056039;28;20083;-68
2022/08/06 11:43:53;;;;;;;1.08;0.70;;;;;;;23.33;51.13;99988.06;5065807;28;20029;-68
2022/08/06 11:46:22;;;;;;;0.68;0.65;;;;;;;23.33;51.05;100004.41;5060033;28;20087;-68
2022/08/06 11:48:57;;;;;;;0.82;0.82;;;;;;;23.34;50.89;100000.59;5055493;28;20021;-68